sensor_id;sensor_type;location;lat;lon;timestamp;pressure;altitude;pressure_sealevel;temperature;humidity
56632;BME280;42503;39.928;-75.152;2023-02-02T00:07:36;102485.94;;;21.50;33.60
56632;BME280;42503;39.928;-75.152;2023-02-02T00:17:38;102477.47;;;21.45;33.25
56632;BME280;42503;39.928;-75.152;2023-02-02T00:27:39;102491.50;;;21.50;33.28
56632;BME280;42503;39.928;-75.152;2023-02-02T00:37:41;102497.44;;;21.53;33.35
56632;BME280;42503;39.928;-75.152;2023-02-02T00:47:44;102498.47;;;21.64;32.21
56632;BME280;42503;39.928;-75.152;2023-02-02T00:57:46;102492.09;;;21.80;32.28
56632;BME280;42503;39.928;-75.152;2023-02-02T01:07:48;102508.41;;;21.89;32.24
56632;BME280;42503;39.928;-75.152;2023-02-02T01:17:53;102513.00;;;21.95;32.38
56632;BME280;42503;39.928;-75.152;2023-02-02T01:27:54;102503.88;;;21.99;32.94
56632;BME280;42503;39.928;-75.152;2023-02-02T01:37:55;102506.50;;;22.06;32.62
56632;BME280;42503;39.928;-75.152;2023-02-02T01:47:58;102495.34;;;22.06;33.01
56632;BME280;42503;39.928;-75.152;2023-02-02T01:58:27;102505.38;;;22.19;33.17
56632;BME280;42503;39.928;-75.152;2023-02-02T02:08:33;102494.56;;;22.22;32.73
56632;BME280;42503;39.928;-75.152;2023-02-02T02:18:39;102509.59;;;22.38;33.11
56632;BME280;42503;39.928;-75.152;2023-02-02T02:39:20;102506.41;;;22.46;33.17
56632;BME280;42503;39.928;-75.152;2023-02-02T02:49:25;102506.75;;;22.50;32.86
56632;BME280;42503;39.928;-75.152;2023-02-02T02:59:34;102496.44;;;22.50;33.22
56632;BME280;42503;39.928;-75.152;2023-02-02T03:09:40;102505.03;;;22.49;32.93
56632;BME280;42503;39.928;-75.152;2023-02-02T03:19:43;102509.00;;;22.53;33.03
56632;BME280;42503;39.928;-75.152;2023-02-02T03:29:44;102531.59;;;22.51;33.31
56632;BME280;42503;39.928;-75.152;2023-02-02T03:39:48;102528.53;;;22.53;32.97
56632;BME280;42503;39.928;-75.152;2023-02-02T03:49:49;102518.75;;;22.50;33.07
56632;BME280;42503;39.928;-75.152;2023-02-02T03:59:51;102510.13;;;22.52;33.08
56632;BME280;42503;39.928;-75.152;2023-02-02T04:09:55;102554.75;;;22.52;33.06
56632;BME280;42503;39.928;-75.152;2023-02-02T04:19:57;102548.25;;;22.46;33.37
56632;BME280;42503;39.928;-75.152;2023-02-02T04:29:58;102564.97;;;22.46;33.40
56632;BME280;42503;39.928;-75.152;2023-02-02T04:40:00;102578.59;;;22.43;33.26
56632;BME280;42503;39.928;-75.152;2023-02-02T04:50:04;102554.22;;;22.38;32.92
56632;BME280;42503;39.928;-75.152;2023-02-02T05:00:06;102520.41;;;22.35;33.08
56632;BME280;42503;39.928;-75.152;2023-02-02T05:10:08;102498.63;;;22.31;33.25
56632;BME280;42503;39.928;-75.152;2023-02-02T05:20:13;102496.06;;;22.30;33.11
56632;BME280;42503;39.928;-75.152;2023-02-02T05:30:20;102484.75;;;22.20;33.50
56632;BME280;42503;39.928;-75.152;2023-02-02T05:40:21;102461.25;;;22.16;32.91
56632;BME280;42503;39.928;-75.152;2023-02-02T05:50:26;102442.09;;;22.19;32.53
56632;BME280;42503;39.928;-75.152;2023-02-02T06:00:27;102449.84;;;22.17;32.28
56632;BME280;42503;39.928;-75.152;2023-02-02T06:10:29;102427.19;;;21.97;32.06
56632;BME280;42503;39.928;-75.152;2023-02-02T06:20:34;102444.19;;;22.12;33.10
56632;BME280;42503;39.928;-75.152;2023-02-02T06:30:35;102442.13;;;22.07;32.45
56632;BME280;42503;39.928;-75.152;2023-02-02T06:40:37;102429.63;;;21.93;32.47
56632;BME280;42503;39.928;-75.152;2023-02-02T06:50:38;102433.25;;;21.94;32.38
56632;BME280;42503;39.928;-75.152;2023-02-02T07:00:43;102455.13;;;22.02;32.67
56632;BME280;42503;39.928;-75.152;2023-02-02T07:20:48;102472.34;;;21.99;32.91
56632;BME280;42503;39.928;-75.152;2023-02-02T07:30:49;102470.66;;;21.98;32.88
56632;BME280;42503;39.928;-75.152;2023-02-02T07:40:51;102471.78;;;21.97;33.19
56632;BME280;42503;39.928;-75.152;2023-02-02T07:50:52;102473.97;;;21.95;32.83
56632;BME280;42503;39.928;-75.152;2023-02-02T08:00:54;102473.38;;;21.93;32.83
56632;BME280;42503;39.928;-75.152;2023-02-02T08:10:55;102445.50;;;21.93;32.95
56632;BME280;42503;39.928;-75.152;2023-02-02T08:21:00;102418.13;;;21.90;32.94
56632;BME280;42503;39.928;-75.152;2023-02-02T08:31:09;102431.47;;;21.88;32.87
56632;BME280;42503;39.928;-75.152;2023-02-02T08:41:13;102389.66;;;21.71;32.94
56632;BME280;42503;39.928;-75.152;2023-02-02T08:51:17;102415.25;;;21.85;32.91
56632;BME280;42503;39.928;-75.152;2023-02-02T09:01:20;102395.44;;;21.81;32.73
56632;BME280;42503;39.928;-75.152;2023-02-02T09:11:22;102372.19;;;21.75;32.35
56632;BME280;42503;39.928;-75.152;2023-02-02T09:21:23;102361.78;;;21.71;31.78
56632;BME280;42503;39.928;-75.152;2023-02-02T09:31:25;102365.31;;;21.66;32.03
56632;BME280;42503;39.928;-75.152;2023-02-02T09:51:50;102385.66;;;21.50;32.50
56632;BME280;42503;39.928;-75.152;2023-02-02T10:02:02;102392.66;;;21.52;32.93
56632;BME280;42503;39.928;-75.152;2023-02-02T10:12:20;102403.78;;;21.52;32.69
56632;BME280;42503;39.928;-75.152;2023-02-02T10:22:28;102411.41;;;21.57;32.08
56632;BME280;42503;39.928;-75.152;2023-02-02T10:53:35;102430.78;;;21.64;31.99
56632;BME280;42503;39.928;-75.152;2023-02-02T11:03:38;102403.50;;;21.66;32.12
56632;BME280;42503;39.928;-75.152;2023-02-02T11:13:56;102402.66;;;21.65;32.20
56632;BME280;42503;39.928;-75.152;2023-02-02T11:34:16;102375.28;;;21.62;32.39
56632;BME280;42503;39.928;-75.152;2023-02-02T11:44:24;102384.75;;;21.61;32.07
56632;BME280;42503;39.928;-75.152;2023-02-02T11:54:34;102359.09;;;21.59;32.14
56632;BME280;42503;39.928;-75.152;2023-02-02T12:04:36;102348.53;;;21.61;32.16
56632;BME280;42503;39.928;-75.152;2023-02-02T12:15:08;102348.19;;;21.57;32.71
56632;BME280;42503;39.928;-75.152;2023-02-02T12:25:27;102368.78;;;21.56;32.21
56632;BME280;42503;39.928;-75.152;2023-02-02T12:35:57;102359.50;;;21.51;31.69
56632;BME280;42503;39.928;-75.152;2023-02-02T12:46:26;102349.09;;;21.46;31.98
56632;BME280;42503;39.928;-75.152;2023-02-02T12:56:39;102350.31;;;21.50;31.90
56632;BME280;42503;39.928;-75.152;2023-02-02T13:06:52;102385.56;;;21.45;31.76
56632;BME280;42503;39.928;-75.152;2023-02-02T13:17:15;102391.28;;;21.38;31.33
56632;BME280;42503;39.928;-75.152;2023-02-02T13:27:20;102376.41;;;21.33;31.03
56632;BME280;42503;39.928;-75.152;2023-02-02T13:47:55;102370.00;;;21.20;31.97
56632;BME280;42503;39.928;-75.152;2023-02-02T14:08:32;102352.34;;;21.26;31.30
56632;BME280;42503;39.928;-75.152;2023-02-02T14:28:57;102359.50;;;21.51;31.55
56632;BME280;42503;39.928;-75.152;2023-02-02T14:39:20;102313.34;;;21.26;31.65
56632;BME280;42503;39.928;-75.152;2023-02-02T14:49:26;102334.50;;;21.56;31.15
56632;BME280;42503;39.928;-75.152;2023-02-02T14:59:37;102287.91;;;21.35;31.20
56632;BME280;42503;39.928;-75.152;2023-02-02T15:09:40;102313.06;;;21.56;31.20
56632;BME280;42503;39.928;-75.152;2023-02-02T15:19:47;102330.63;;;21.57;31.17
56632;BME280;42503;39.928;-75.152;2023-02-02T15:30:02;102336.72;;;21.54;31.16
56632;BME280;42503;39.928;-75.152;2023-02-02T15:40:12;102304.81;;;21.45;31.17
56632;BME280;42503;39.928;-75.152;2023-02-02T15:50:18;102280.50;;;21.40;30.88
56632;BME280;42503;39.928;-75.152;2023-02-02T16:10:31;102225.81;;;21.51;30.84
56632;BME280;42503;39.928;-75.152;2023-02-02T16:20:35;102197.28;;;21.44;30.82
56632;BME280;42503;39.928;-75.152;2023-02-02T16:30:38;102164.47;;;21.46;30.87
56632;BME280;42503;39.928;-75.152;2023-02-02T16:40:40;102162.19;;;21.43;30.70
56632;BME280;42503;39.928;-75.152;2023-02-02T16:50:55;102108.09;;;21.39;30.05
56632;BME280;42503;39.928;-75.152;2023-02-02T17:01:09;102079.69;;;21.37;31.28
56632;BME280;42503;39.928;-75.152;2023-02-02T17:11:26;102061.34;;;21.41;32.02
56632;BME280;42503;39.928;-75.152;2023-02-02T17:21:30;102031.28;;;21.43;31.54
56632;BME280;42503;39.928;-75.152;2023-02-02T17:31:35;101992.31;;;21.43;31.56
56632;BME280;42503;39.928;-75.152;2023-02-02T17:41:39;101972.88;;;21.48;31.93
56632;BME280;42503;39.928;-75.152;2023-02-02T17:51:41;101908.88;;;21.53;31.98
56632;BME280;42503;39.928;-75.152;2023-02-02T18:01:43;101875.53;;;21.58;31.62
56632;BME280;42503;39.928;-75.152;2023-02-02T18:11:45;101841.06;;;21.64;31.74
56632;BME280;42503;39.928;-75.152;2023-02-02T18:21:54;101812.13;;;21.70;32.34
56632;BME280;42503;39.928;-75.152;2023-02-02T18:31:57;101775.13;;;21.75;32.70
56632;BME280;42503;39.928;-75.152;2023-02-02T18:41:58;101764.91;;;21.86;32.51
56632;BME280;42503;39.928;-75.152;2023-02-02T18:52:00;101747.66;;;21.94;32.67
56632;BME280;42503;39.928;-75.152;2023-02-02T19:02:02;101754.97;;;22.00;32.76
56632;BME280;42503;39.928;-75.152;2023-02-02T19:12:11;101702.88;;;22.05;32.90
56632;BME280;42503;39.928;-75.152;2023-02-02T19:22:22;101680.06;;;22.08;32.24
56632;BME280;42503;39.928;-75.152;2023-02-02T19:32:25;101662.47;;;22.08;32.63
56632;BME280;42503;39.928;-75.152;2023-02-02T19:42:27;101664.25;;;22.19;32.34
56632;BME280;42503;39.928;-75.152;2023-02-02T19:52:31;101650.84;;;22.21;32.08
56632;BME280;42503;39.928;-75.152;2023-02-02T20:02:59;101638.56;;;22.17;32.51
56632;BME280;42503;39.928;-75.152;2023-02-02T20:13:14;101609.03;;;22.16;32.14
56632;BME280;42503;39.928;-75.152;2023-02-02T20:33:29;101576.97;;;22.14;31.85
56632;BME280;42503;39.928;-75.152;2023-02-02T20:43:32;101585.00;;;22.10;32.31
56632;BME280;42503;39.928;-75.152;2023-02-02T20:53:36;101559.66;;;22.12;32.36
56632;BME280;42503;39.928;-75.152;2023-02-02T21:03:40;101554.34;;;22.10;32.14
56632;BME280;42503;39.928;-75.152;2023-02-02T21:13:42;101549.88;;;22.09;32.27
56632;BME280;42503;39.928;-75.152;2023-02-02T21:23:44;101554.88;;;22.07;32.08
56632;BME280;42503;39.928;-75.152;2023-02-02T21:33:48;101545.97;;;22.05;32.26
56632;BME280;42503;39.928;-75.152;2023-02-02T21:43:50;101540.94;;;22.02;32.06
56632;BME280;42503;39.928;-75.152;2023-02-02T21:53:51;101536.19;;;21.97;32.11
56632;BME280;42503;39.928;-75.152;2023-02-02T22:03:53;101513.06;;;21.97;32.05
56632;BME280;42503;39.928;-75.152;2023-02-02T22:14:16;101494.66;;;21.91;32.34
56632;BME280;42503;39.928;-75.152;2023-02-02T22:24:19;101497.47;;;21.96;32.59
56632;BME280;42503;39.928;-75.152;2023-02-02T22:34:23;101464.00;;;21.96;32.15
56632;BME280;42503;39.928;-75.152;2023-02-02T22:44:26;101471.25;;;21.97;32.36
56632;BME280;42503;39.928;-75.152;2023-02-02T22:54:28;101478.50;;;22.03;32.02
56632;BME280;42503;39.928;-75.152;2023-02-02T23:04:30;101463.75;;;22.07;32.60
56632;BME280;42503;39.928;-75.152;2023-02-02T23:14:32;101445.34;;;22.06;32.63
56632;BME280;42503;39.928;-75.152;2023-02-02T23:24:33;101426.47;;;22.14;32.15
56632;BME280;42503;39.928;-75.152;2023-02-02T23:34:37;101391.31;;;22.13;33.42
56632;BME280;42503;39.928;-75.152;2023-02-02T23:44:41;101386.84;;;22.12;32.85
56632;BME280;42503;39.928;-75.152;2023-02-02T23:54:42;101352.56;;;22.11;32.98
